Time;durP1;ratioP1;P1;durP2;ratioP2;P2;SDS_P1;SDS_P2;PMS_P1;PMS_P2;Temp;Humidity;BMP_temperature;BMP_pressure;BME280_temperature;BME280_humidity;BME280_pressure;Samples;Min_cycle;Max_cycle;Signal;HPM_P1;HPM_P2
2022/06/13 00:00:58;;;;;;;;;1.00;1.00;;;;;19.70;58.24;102022.56;5091955;27;45350;-79
2022/06/13 00:03:23;;;;;;;;;2.25;1.00;;;;;19.61;58.82;102020.56;5063809;28;45310;-80
2022/06/13 00:05:50;;;;;;;;;1.00;1.00;;;;;19.56;58.91;102022.19;5078736;27;46290;-80
2022/06/13 00:08:15;;;;;;;;;1.50;1.00;;;;;19.55;58.96;102036.16;5077442;28;45226;-79
2022/06/13 00:10:41;;;;;;;;;2.50;1.00;;;;;19.50;59.04;102041.31;5077646;28;45414;-80
2022/06/13 00:13:07;;;;;;;;;3.00;1.25;;;;;19.53;59.62;102029.97;5084573;27;45330;-83
2022/06/13 00:15:33;;;;;;;;;1.00;1.00;;;;;19.51;59.47;102029.03;5097857;27;46433;-81
2022/06/13 00:17:59;;;;;;;;;3.25;1.00;;;;;19.46;60.02;102023.66;5096409;27;45962;-80
2022/06/13 00:20:25;;;;;;;;;1.75;1.75;;;;;19.44;60.71;102027.97;5098037;27;45357;-79
2022/06/13 00:22:51;;;;;;;;;3.50;1.25;;;;;19.34;60.47;102017.22;5098051;27;45575;-77
2022/06/13 00:25:17;;;;;;;;;2.25;1.25;;;;;19.37;61.04;102026.94;5097903;27;45316;-81
2022/06/13 00:27:43;;;;;;;;;3.00;2.00;;;;;19.30;61.09;102032.84;5097545;27;45435;-79
2022/06/13 00:30:10;;;;;;;;;5.00;1.75;;;;;19.20;61.33;102029.09;5079356;27;45327;-78
2022/06/13 00:32:36;;;;;;;;;2.00;2.00;;;;;19.13;61.63;102020.16;5097974;27;45430;-75
2022/06/13 00:35:02;;;;;;;;;2.25;2.00;;;;;19.14;61.92;102027.19;5097135;27;45374;-75
2022/06/13 00:37:29;;;;;;;;;5.00;2.00;;;;;19.16;62.01;102024.59;5097619;27;45464;-75
2022/06/13 00:39:54;;;;;;;;;2.00;2.00;;;;;19.16;62.14;102014.09;5103606;27;45399;-80
2022/06/13 00:42:23;;;;;;;;;2.25;2.00;;;;;19.13;62.49;102012.28;5101080;27;44945;-82
2022/06/13 00:45:07;;;;;;;;;2.00;2.00;;;;;19.18;62.21;102021.16;5098265;27;46344;-82
2022/06/13 00:47:33;;;;;;;;;2.50;2.00;;;;;19.13;63.22;102025.41;5098131;27;45254;-81
2022/06/13 00:50:01;;;;;;;;;2.50;1.50;;;;;19.08;63.16;102020.84;5086943;27;45245;-82
2022/06/13 00:52:59;;;;;;;;;3.00;2.00;;;;;18.93;63.74;102013.41;5077732;27;45532;-79
2022/06/13 00:55:37;;;;;;;;;2.75;1.75;;;;;18.86;64.69;102015.81;5074499;28;46107;-79
2022/06/13 00:58:04;;;;;;;;;2.50;1.25;;;;;18.83;64.88;102009.59;5064223;28;45612;-78
2022/06/13 01:00:32;;;;;;;;;2.00;1.00;;;;;18.82;65.30;101997.31;5085013;27;45258;-83
2022/06/13 01:03:00;;;;;;;;;3.25;3.00;;;;;18.82;65.26;101997.31;5077497;28;45531;-81
2022/06/13 01:05:30;;;;;;;;;4.50;3.00;;;;;18.84;65.28;102000.88;5076632;28;46027;-83
2022/06/13 01:07:59;;;;;;;;;2.00;2.00;;;;;18.79;65.46;102006.00;5076933;28;45672;-81
2022/06/13 01:13:11;;;;;;;;;2.25;2.00;;;;;18.67;66.11;102001.28;5082179;28;45516;-83
2022/06/13 01:16:14;;;;;;;;;3.00;2.50;;;;;18.70;67.38;101997.84;5076878;28;45311;-82
2022/06/13 01:19:01;;;;;;;;;3.00;2.00;;;;;18.69;67.01;101994.31;5076891;27;45351;-81
2022/06/13 01:21:54;;;;;;;;;3.25;2.00;;;;;18.63;67.77;101994.16;5077141;28;45473;-82
2022/06/13 01:24:40;;;;;;;;;3.50;3.00;;;;;18.62;67.76;101989.75;5077646;28;45555;-81
2022/06/13 01:27:33;;;;;;;;;5.50;3.00;;;;;18.63;67.45;101988.00;5052044;27;45273;-82
2022/06/13 01:30:08;;;;;;;;;2.50;2.50;;;;;18.58;69.11;101989.59;5086201;28;45886;-83
2022/06/13 01:32:52;;;;;;;;;3.25;3.00;;;;;18.54;68.42;101981.63;5086506;28;45349;-78
2022/06/13 01:35:39;;;;;;;;;4.25;3.00;;;;;18.52;68.83;101985.94;5085121;27;45461;-78
2022/06/13 01:38:14;;;;;;;;;3.50;3.00;;;;;18.45;68.93;101989.22;5065005;28;47609;-83
2022/06/13 01:40:53;;;;;;;;;4.75;3.00;;;;;18.34;69.59;101980.13;5065051;28;45740;-82
2022/06/13 01:43:37;;;;;;;;;6.00;3.25;;;;;18.33;70.16;101986.19;5083506;27;45397;-82
2022/06/13 01:46:33;;;;;;;;;5.00;2.00;;;;;18.24;70.55;101992.94;5085614;27;45336;-83
2022/06/13 01:49:20;;;;;;;;;3.25;3.00;;;;;18.23;71.33;101988.53;5086432;28;45386;-83
2022/06/13 01:51:52;;;;;;;;;4.00;3.25;;;;;18.25;70.60;101999.97;5083000;27;45465;-83
2022/06/13 01:54:42;;;;;;;;;2.25;2.25;;;;;18.23;73.21;101998.16;5083297;28;45372;-82
2022/06/13 01:57:18;;;;;;;;;5.00;4.00;;;;;18.10;74.09;101995.13;5083205;27;45341;-83
2022/06/13 02:00:11;;;;;;;;;4.75;4.00;;;;;18.07;74.10;101992.41;5082691;28;45477;-82
2022/06/13 02:02:45;;;;;;;;;5.75;5.00;;;;;18.03;74.03;102000.09;5082995;27;45888;-83
2022/06/13 02:05:38;;;;;;;;;7.75;3.25;;;;;17.99;74.58;101987.72;5081249;27;45393;-84
2022/06/13 02:08:06;;;;;;;;;6.75;5.25;;;;;17.96;75.63;101998.97;5082477;27;45617;-83
2022/06/13 02:10:39;;;;;;;;;8.50;5.00;;;;;17.89;75.84;101997.00;5082728;27;45388;-83
2022/06/13 02:13:10;;;;;;;;;6.25;5.00;;;;;17.90;76.40;102004.03;5088449;27;45432;-83
2022/06/13 02:15:42;;;;;;;;;5.00;4.25;;;;;17.89;76.10;101997.00;5091422;27;45446;-83
2022/06/13 02:18:29;;;;;;;;;8.00;5.00;;;;;17.87;76.53;101999.53;5084631;27;45346;-83
2022/06/13 02:20:59;;;;;;;;;4.75;4.75;;;;;17.86;76.99;101995.19;5085934;27;46386;-83
2022/06/13 02:23:28;;;;;;;;;7.25;4.00;;;;;17.85;76.37;101985.53;5087515;28;45736;-84
2022/06/13 02:26:04;;;;;;;;;5.00;4.00;;;;;17.81;77.45;101994.09;5082488;28;45272;-84
2022/06/13 02:28:46;;;;;;;;;3.75;3.50;;;;;17.79;77.32;101986.22;5064577;28;45332;-84
2022/06/13 02:31:41;;;;;;;;;9.00;4.25;;;;;17.74;77.97;101990.38;5082230;28;45550;-83
2022/06/13 02:34:27;;;;;;;;;6.00;5.00;;;;;17.74;78.15;101992.13;5082110;27;45931;-82
2022/06/13 02:37:11;;;;;;;;;6.00;5.00;;;;;17.77;78.71;101998.34;5063768;28;45386;-83
2022/06/13 02:39:55;;;;;;;;;10.00;5.50;;;;;17.73;78.25;101993.84;5082495;27;45287;-84
2022/06/13 02:42:38;;;;;;;;;6.75;4.00;;;;;17.70;78.93;101988.53;5058112;28;46002;-78
2022/06/13 02:45:13;;;;;;;;;4.75;4.00;;;;;17.64;79.69;101985.66;5058608;28;45358;-80
2022/06/13 02:47:55;;;;;;;;;5.75;4.50;;;;;17.70;79.70;101990.22;5064306;28;45366;-83
2022/06/13 02:50:39;;;;;;;;;4.00;4.00;;;;;17.65;79.31;101990.06;5079625;27;45379;-78
2022/06/13 02:53:33;;;;;;;;;4.25;4.00;;;;;17.63;79.34;101992.66;5078811;27;45407;-83
2022/06/13 02:56:09;;;;;;;;;4.00;2.50;;;;;17.60;80.31;101989.03;5082967;27;45790;-82
2022/06/13 02:58:54;;;;;;;;;6.00;2.75;;;;;17.60;80.59;101991.66;5084637;27;45371;-83
2022/06/13 03:01:32;;;;;;;;;4.75;4.75;;;;;17.57;80.57;101988.94;5069285;28;45415;-84
2022/06/13 03:04:06;;;;;;;;;7.25;6.25;;;;;17.58;80.83;101985.47;5089525;27;45640;-84
2022/06/13 03:06:43;;;;;;;;;4.00;3.50;;;;;17.60;80.33;101994.28;5085384;28;45269;-79
2022/06/13 03:09:20;;;;;;;;;3.75;3.25;;;;;17.58;81.00;101988.09;5078855;27;45378;-79
2022/06/13 03:12:14;;;;;;;;;3.25;2.50;;;;;17.61;80.96;101994.31;5079346;28;45320;-83
2022/06/13 03:14:43;;;;;;;;;6.00;4.75;;;;;17.58;80.64;101993.34;5078439;28;45352;-82
2022/06/13 03:17:27;;;;;;;;;4.00;4.00;;;;;17.62;80.33;102008.28;5079145;27;45330;-83
2022/06/13 03:20:15;;;;;;;;;4.00;4.00;;;;;17.62;80.43;102008.28;5085732;27;45315;-82
2022/06/13 03:22:49;;;;;;;;;5.25;4.00;;;;;17.63;80.33;102008.38;5091221;27;45224;-81
2022/06/13 03:25:42;;;;;;;;;5.50;4.25;;;;;17.62;80.25;102011.81;5079365;28;45276;-79
2022/06/13 03:28:14;;;;;;;;;4.00;3.50;;;;;17.60;80.27;102016.09;5079057;27;45391;-78
2022/06/13 03:30:47;;;;;;;;;5.00;4.75;;;;;17.53;80.08;102018.44;5057246;28;45315;-79
2022/06/13 03:36:07;;;;;;;;;6.00;4.25;;;;;17.46;80.63;102022.56;5081853;28;45871;-83
2022/06/13 03:38:40;;;;;;;;;5.25;5.00;;;;;17.35;80.76;102013.44;5079199;28;45354;-83
2022/06/13 03:41:11;;;;;;;;;7.00;4.75;;;;;17.37;82.07;102028.38;5080394;28;45327;-84
2022/06/13 03:43:54;;;;;;;;;5.00;5.00;;;;;17.38;82.67;102035.41;5079578;28;45307;-83
2022/06/13 03:46:32;;;;;;;;;6.00;4.75;;;;;17.35;82.50;102035.28;5078955;28;46312;-83
2022/06/13 03:49:05;;;;;;;;;7.00;4.25;;;;;17.31;83.20;102030.75;5062149;28;45809;-83
2022/06/13 03:51:41;;;;;;;;;7.00;4.50;;;;;17.23;84.15;102024.38;5080792;27;45527;-83
2022/06/13 03:54:13;;;;;;;;;3.00;2.75;;;;;17.22;84.23;102023.50;5079624;27;45441;-82
2022/06/13 03:56:50;;;;;;;;;3.75;3.25;;;;;17.30;84.22;102032.50;5079274;27;46028;-83
2022/06/13 03:59:31;;;;;;;;;6.50;4.50;;;;;17.29;83.72;102033.34;5078484;27;45308;-82
2022/06/13 04:02:13;;;;;;;;;5.75;5.50;;;;;17.27;84.56;102029.75;5077619;28;45177;-80
2022/06/13 04:04:44;;;;;;;;;5.50;4.00;;;;;17.26;84.97;102025.38;5078878;28;45470;-83
2022/06/13 04:07:10;;;;;;;;;5.25;4.25;;;;;17.18;85.05;102018.97;5083466;27;46217;-83
2022/06/13 04:09:42;;;;;;;;;6.00;4.00;;;;;17.22;84.71;102031.34;5079309;28;45313;-82
2022/06/13 04:12:13;;;;;;;;;3.50;3.00;;;;;17.22;84.65;102031.34;5077616;28;45358;-81
2022/06/13 04:14:47;;;;;;;;;7.00;5.25;;;;;17.22;84.95;102031.34;5077835;27;45426;-80
2022/06/13 04:17:48;;;;;;;;;4.25;4.25;;;;;17.25;85.10;102030.56;5077054;28;46098;-81
2022/06/13 04:20:52;;;;;;;;;6.75;4.00;;;;;17.27;84.38;102035.00;5077011;27;45782;-79
2022/06/13 04:23:21;;;;;;;;;5.00;5.00;;;;;17.28;85.06;102028.94;5059600;28;45337;-80
2022/06/13 04:26:19;;;;;;;;;5.00;5.00;;;;;17.32;84.82;102032.56;5079515;27;45361;-78
2022/06/13 04:28:49;;;;;;;;;5.00;5.00;;;;;17.31;84.58;102031.66;5081428;28;46265;-81
2022/06/13 04:31:18;;;;;;;;;4.75;4.50;;;;;17.34;84.60;102038.75;5066433;28;45359;-81
2022/06/13 04:33:53;;;;;;;;;7.00;6.00;;;;;17.31;84.80;102031.66;5083507;28;45347;-78
2022/06/13 04:36:21;;;;;;;;;5.75;4.25;;;;;17.31;84.79;102036.91;5079571;27;45435;-82
2022/06/13 04:38:52;;;;;;;;;8.75;4.00;;;;;17.24;85.44;102028.78;5078590;28;46144;-81
2022/06/13 04:41:21;;;;;;;;;5.00;4.00;;;;;17.26;85.81;102034.97;5079458;28;45825;-79
2022/06/13 04:43:52;;;;;;;;;5.75;5.00;;;;;17.21;85.23;102031.25;5081464;28;45372;-81
2022/06/13 04:46:21;;;;;;;;;5.75;4.50;;;;;17.26;84.97;102030.59;5077651;28;45281;-83
2022/06/13 04:48:50;;;;;;;;;6.00;5.25;;;;;17.31;86.16;102044.75;5077251;27;45401;-79
2022/06/13 04:51:27;;;;;;;;;7.25;5.00;;;;;17.35;86.13;102043.13;5077239;27;45358;-82
2022/06/13 04:54:37;;;;;;;;;5.75;5.00;;;;;17.37;85.70;102051.03;5076436;28;45328;-81
2022/06/13 04:57:04;;;;;;;;;8.25;5.25;;;;;17.31;86.31;102038.63;5073701;27;45273;-80
2022/06/13 04:59:30;;;;;;;;;6.75;5.00;;;;;17.24;87.28;102039.22;5076585;28;45463;-81
2022/06/13 05:01:58;;;;;;;;;7.50;5.75;;;;;17.28;87.42;102054.19;5076892;28;45510;-82
2022/06/13 05:04:29;;;;;;;;;6.00;5.00;;;;;17.22;88.28;102052.28;5076337;28;45359;-79
2022/06/13 05:06:59;;;;;;;;;5.00;5.00;;;;;17.26;88.17;102056.78;5077230;27;45284;-80
2022/06/13 05:09:29;;;;;;;;;5.50;5.25;;;;;17.26;87.94;102058.50;5070896;28;46314;-79
2022/06/13 05:12:21;;;;;;;;;6.00;5.00;;;;;17.24;88.63;102060.19;5083099;28;45324;-81
2022/06/13 05:15:01;;;;;;;;;4.25;3.75;;;;;17.14;89.34;102053.69;5059503;28;45367;-82
2022/06/13 05:17:56;;;;;;;;;2.75;2.00;;;;;17.17;89.51;102062.53;5085906;28;45272;-82
2022/06/13 05:20:38;;;;;;;;;7.75;4.50;;;;;17.16;90.23;102057.25;5060604;28;47341;-79
2022/06/13 05:23:16;;;;;;;;;6.00;4.25;;;;;17.14;90.68;102062.44;5076682;28;45183;-79
2022/06/13 05:25:49;;;;;;;;;8.00;6.00;;;;;17.13;91.83;102070.22;5072315;28;45370;-80
2022/06/13 05:28:19;;;;;;;;;5.50;4.00;;;;;17.14;91.36;102066.78;5076148;27;45484;-81
2022/06/13 05:30:50;;;;;;;;;3.25;3.25;;;;;17.11;92.00;102067.56;5075723;28;46047;-81
2022/06/13 05:33:20;;;;;;;;;7.75;6.00;;;;;17.13;91.28;102070.22;5075794;28;46033;-79
2022/06/13 05:35:47;;;;;;;;;7.50;5.25;;;;;17.15;92.34;102077.31;5073667;28;46102;-82
2022/06/13 05:38:19;;;;;;;;;6.00;4.75;;;;;17.17;92.23;102077.38;5075667;28;45566;-81
2022/06/13 05:40:45;;;;;;;;;5.50;4.25;;;;;17.21;93.22;102083.59;5058240;28;47889;-83
2022/06/13 05:43:12;;;;;;;;;8.50;5.75;;;;;17.14;93.45;102066.78;5076969;28;45847;-81
2022/06/13 05:45:45;;;;;;;;;7.50;5.25;;;;;17.14;92.78;102066.78;5059960;28;45208;-78
2022/06/13 05:48:17;;;;;;;;;4.00;4.00;;;;;17.16;94.44;102080.81;5063548;28;45447;-79
2022/06/13 05:50:44;;;;;;;;;7.00;3.50;;;;;17.13;94.83;102073.75;5078058;28;46312;-78
2022/06/13 05:53:15;;;;;;;;;7.25;5.75;;;;;17.18;94.48;102087.88;5077069;28;45915;-81
2022/06/13 05:55:42;;;;;;;;;6.00;5.25;;;;;17.17;94.47;102085.22;5079843;27;45473;-77
2022/06/13 05:58:13;;;;;;;;;6.50;6.00;;;;;17.13;95.26;102083.31;5083489;27;45469;-83
2022/06/13 06:00:43;;;;;;;;;9.50;6.00;;;;;17.09;95.62;102071.84;5087096;27;45635;-81
2022/06/13 06:03:13;;;;;;;;;5.50;5.25;;;;;17.06;96.27;102078.69;5067995;28;45343;-88
2022/06/13 06:05:40;;;;;;;;;4.00;4.00;;;;;17.04;97.01;102082.97;5082212;27;45418;-83
2022/06/13 06:08:22;;;;;;;;;9.25;5.25;;;;;16.98;96.56;102081.91;5079440;27;45209;-84
2022/06/13 06:10:50;;;;;;;;;5.25;4.50;;;;;16.90;97.52;102062.34;5062659;28;47907;-86
2022/06/13 06:13:17;;;;;;;;;5.25;3.75;;;;;17.08;96.96;102096.22;5077470;28;45328;-80
2022/06/13 06:15:44;;;;;;;;;7.75;6.00;;;;;16.98;97.52;102067.91;5075664;28;45383;-81
2022/06/13 06:18:10;;;;;;;;;5.00;5.00;;;;;17.12;97.68;102097.22;5091222;27;45411;-86
2022/06/13 06:20:37;;;;;;;;;9.75;5.00;;;;;17.10;98.64;102097.19;5072553;27;47113;-84
2022/06/13 06:23:04;;;;;;;;;5.50;5.50;;;;;17.12;98.24;102111.22;5091120;27;45208;-81
2022/06/13 06:25:30;;;;;;;;;6.50;6.00;;;;;17.12;97.94;102108.59;5085192;27;45520;-79
2022/06/13 06:27:56;;;;;;;;;6.50;5.00;;;;;17.10;98.06;102105.03;5078688;28;45334;-79
2022/06/13 06:30:22;;;;;;;;;9.00;8.00;;;;;17.11;99.05;102105.94;5077772;28;45882;-78
2022/06/13 06:32:48;;;;;;;;;6.50;5.25;;;;;17.13;99.83;102102.53;5078427;27;45733;-78
2022/06/13 06:35:14;;;;;;;;;13.75;7.00;;;;;17.16;99.65;102107.91;5054767;28;45722;-79
2022/06/13 06:37:47;;;;;;;;;11.25;6.00;;;;;17.19;99.27;102101.88;5078608;27;45521;-80
2022/06/13 06:40:15;;;;;;;;;7.75;5.75;;;;;17.26;99.31;102111.75;5078588;27;45486;-80
2022/06/13 06:42:41;;;;;;;;;7.75;6.00;;;;;17.30;99.20;102110.13;5077820;27;45500;-76
2022/06/13 06:45:07;;;;;;;;;6.00;5.00;;;;;17.27;98.89;102097.81;5083787;27;45548;-78
2022/06/13 06:47:33;;;;;;;;;9.75;6.00;;;;;17.38;98.54;102110.41;5085091;27;45293;-77
2022/06/13 06:49:59;;;;;;;;;7.75;6.75;;;;;17.41;99.00;102116.66;5078792;27;46078;-78
2022/06/13 06:52:24;;;;;;;;;12.25;7.25;;;;;17.47;98.36;102111.66;5089093;27;45390;-77
2022/06/13 07:00:19;;;;;;;;;5.25;5.25;;;;;17.66;94.66;102121.91;5088254;27;45992;-76
2022/06/13 07:02:45;;;;;;;;;5.75;5.75;;;;;17.68;93.76;102126.38;5088813;27;45963;-77
2022/06/13 07:05:11;;;;;;;;;5.50;5.50;;;;;17.77;93.29;102124.09;5075942;28;45411;-77
2022/06/13 07:07:37;;;;;;;;;6.50;4.00;;;;;17.81;92.12;102122.47;5059548;28;45518;-78
2022/06/13 07:10:04;;;;;;;;;8.00;5.00;;;;;17.87;91.44;102122.69;5076553;28;46359;-76
2022/06/13 07:12:30;;;;;;;;;5.50;5.50;;;;;17.88;91.26;102129.72;5087987;27;45451;-76
2022/06/13 07:14:55;;;;;;;;;6.25;4.50;;;;;17.92;91.05;102122.88;5081838;27;45752;-78
2022/06/13 07:17:23;;;;;;;;;7.50;4.50;;;;;17.95;91.49;102128.19;5073010;27;45621;-78
2022/06/13 07:19:49;;;;;;;;;10.75;6.25;;;;;17.97;90.79;102120.44;5094053;27;45466;-78
2022/06/13 07:22:18;;;;;;;;;5.00;4.00;;;;;18.03;89.78;102128.50;5044974;28;45432;-77
2022/06/13 07:24:46;;;;;;;;;7.50;5.00;;;;;18.09;88.17;102123.47;5086577;27;45551;-77
2022/06/13 07:27:13;;;;;;;;;5.25;4.75;;;;;18.14;86.31;102128.91;5078630;27;45540;-77
2022/06/13 07:29:40;;;;;;;;;4.75;4.75;;;;;18.19;86.23;102120.38;5103951;27;47634;-77
2022/06/13 07:32:16;;;;;;;;;4.25;3.50;;;;;18.26;85.87;102124.06;5078435;27;45936;-78
2022/06/13 07:34:44;;;;;;;;;3.25;3.00;;;;;18.29;83.80;102121.56;5081966;27;45520;-78
2022/06/13 07:37:13;;;;;;;;;6.75;5.25;;;;;18.38;83.19;102129.72;5085396;27;45431;-81
2022/06/13 07:39:39;;;;;;;;;3.50;3.00;;;;;18.39;81.90;102120.16;5088655;27;46194;-79
2022/06/13 07:42:05;;;;;;;;;6.25;4.50;;;;;18.39;81.64;102122.78;5064726;27;45526;-78
2022/06/13 07:44:39;;;;;;;;;4.75;4.75;;;;;18.20;81.86;102090.66;5094550;27;45497;-79
2022/06/13 07:47:05;;;;;;;;;4.25;4.00;;;;;18.40;82.13;102119.31;5080549;27;45529;-79
2022/06/13 07:49:31;;;;;;;;;5.75;5.00;;;;;18.49;80.82;102122.22;5088044;27;45452;-79
2022/06/13 07:51:57;;;;;;;;;5.00;2.25;;;;;18.55;80.75;102129.41;5081192;27;45473;-78
2022/06/13 07:54:23;;;;;;;;;3.50;3.50;;;;;18.61;80.52;102126.09;5085649;27;45292;-79
2022/06/13 07:56:48;;;;;;;;;7.00;5.00;;;;;18.57;80.15;102114.63;5077503;28;45482;-77
2022/06/13 07:59:19;;;;;;;;;2.50;2.50;;;;;18.63;77.14;102108.66;5080224;27;46147;-78
2022/06/13 08:01:45;;;;;;;;;5.25;3.00;;;;;18.78;75.26;102132.78;5077397;28;45391;-79
2022/06/13 08:04:11;;;;;;;;;2.00;2.00;;;;;18.82;73.34;102132.03;5069186;27;45442;-78
2022/06/13 08:06:41;;;;;;;;;3.75;2.00;;;;;18.87;73.57;102138.31;5078666;27;45279;-78
2022/06/13 08:09:08;;;;;;;;;3.50;3.50;;;;;18.86;72.61;102119.91;5068068;28;46526;-79
2022/06/13 08:11:37;;;;;;;;;4.00;4.00;;;;;18.82;72.02;102110.13;5080793;27;45708;-78
2022/06/13 08:14:06;;;;;;;;;3.50;2.50;;;;;18.93;71.68;102123.63;5052245;27;45560;-78
2022/06/13 08:16:34;;;;;;;;;3.00;3.00;;;;;18.96;71.40;102128.97;5102040;27;45373;-78
2022/06/13 08:19:01;;;;;;;;;5.00;4.75;;;;;18.98;70.60;102130.81;5083200;27;45429;-77
2022/06/13 08:21:27;;;;;;;;;3.75;2.75;;;;;19.06;69.54;102136.28;5093344;27;45763;-77
2022/06/13 08:23:52;;;;;;;;;6.50;2.50;;;;;19.00;67.99;102121.28;5083064;27;45453;-76
2022/06/13 08:26:18;;;;;;;;;4.50;1.00;;;;;19.00;67.74;102118.66;5077103;27;45457;-79
2022/06/13 08:28:44;;;;;;;;;3.75;3.00;;;;;19.10;66.71;102129.44;5078492;27;45609;-79
2022/06/13 08:31:17;;;;;;;;;4.00;3.00;;;;;19.13;66.88;102132.13;5077754;27;45321;-79
2022/06/13 08:33:43;;;;;;;;;3.75;3.00;;;;;19.16;65.76;102137.47;5077548;27;45446;-78
2022/06/13 08:36:10;;;;;;;;;2.00;2.00;;;;;19.09;64.83;102120.66;5079371;27;45393;-77
2022/06/13 08:38:36;;;;;;;;;5.25;3.50;;;;;19.24;64.60;102141.22;5070849;27;47834;-81
2022/06/13 08:41:08;;;;;;;;;4.00;3.00;;;;;19.27;63.50;102141.31;5065776;28;45415;-79
2022/06/13 08:44:12;;;;;;;;;2.50;2.25;;;;;19.28;63.17;102144.81;5087583;27;45277;-79
2022/06/13 08:46:40;;;;;;;;;2.25;2.25;;;;;19.29;63.05;102138.72;5081358;27;45658;-79
2022/06/13 08:49:38;;;;;;;;;3.50;2.50;;;;;19.30;62.79;102140.50;5077051;27;45894;-78
2022/06/13 08:52:27;;;;;;;;;2.00;2.00;;;;;19.34;62.42;102145.91;5022311;28;45424;-79
2022/06/13 08:55:11;;;;;;;;;4.00;3.00;;;;;19.26;61.72;102121.16;5085347;27;45545;-76
2022/06/13 08:57:43;;;;;;;;;4.75;3.00;;;;;19.36;60.63;102131.94;5085036;27;45484;-77
2022/06/13 09:00:13;;;;;;;;;5.50;3.00;;;;;19.31;60.41;102130.06;5074432;27;46504;-78
2022/06/13 09:02:51;;;;;;;;;2.50;2.50;;;;;19.42;59.69;102138.25;5081941;28;46873;-79
2022/06/13 09:05:38;;;;;;;;;3.75;3.00;;;;;19.48;60.40;102134.91;5084165;27;45408;-80
2022/06/13 09:08:37;;;;;;;;;2.25;2.25;;;;;19.55;60.53;102134.25;5085673;27;45270;-77
2022/06/13 09:11:17;;;;;;;;;3.00;3.00;;;;;19.53;59.84;102135.97;5075860;27;46373;-79
2022/06/13 09:13:57;;;;;;;;;5.00;3.50;;;;;19.56;59.41;102127.28;5088129;27;45632;-80
2022/06/13 09:16:32;;;;;;;;;2.50;2.00;;;;;19.58;59.80;102120.31;5084209;27;45445;-80
2022/06/13 09:19:01;;;;;;;;;3.00;1.75;;;;;19.62;59.00;102136.22;5076353;28;45439;-79
2022/06/13 09:21:27;;;;;;;;;3.75;2.75;;;;;19.61;58.99;102130.91;5077013;27;46385;-79
2022/06/13 09:24:07;;;;;;;;;3.00;2.50;;;;;19.65;59.13;102132.78;5078952;27;45658;-78
2022/06/13 09:26:45;;;;;;;;;3.00;2.75;;;;;19.70;57.31;102138.16;5086777;27;45394;-78
2022/06/13 09:29:22;;;;;;;;;2.00;2.00;;;;;19.71;58.51;102130.31;5070961;27;45469;-79
2022/06/13 09:31:58;;;;;;;;;5.25;3.75;;;;;19.82;56.63;102138.50;5081835;27;45423;-79
2022/06/13 09:34:31;;;;;;;;;2.25;1.00;;;;;19.88;56.58;102135.19;5080757;27;45193;-78
2022/06/13 09:37:32;;;;;;;;;3.00;3.00;;;;;19.93;56.43;102131.84;5076830;27;45394;-77
2022/06/13 09:39:58;;;;;;;;;3.00;2.00;;;;;19.98;56.11;102128.47;5059465;27;45632;-82
2022/06/13 09:42:27;;;;;;;;;2.00;2.00;;;;;20.03;55.47;102129.47;5077076;27;46360;-78
2022/06/13 09:45:21;;;;;;;;;1.25;1.25;;;;;20.06;54.83;102122.53;5065534;27;45640;-78
2022/06/13 09:47:55;;;;;;;;;2.50;2.00;;;;;20.08;56.00;102131.38;5086134;27;45447;-79
2022/06/13 09:50:48;;;;;;;;;3.00;3.00;;;;;20.12;56.16;102132.34;5083686;28;45550;-80
2022/06/13 09:53:20;;;;;;;;;5.50;2.25;;;;;20.14;54.04;102132.41;5079727;27;45449;-79
2022/06/13 09:56:27;;;;;;;;;2.25;2.25;;;;;20.14;52.24;102127.13;5075122;27;45427;-79
2022/06/13 09:59:08;;;;;;;;;4.75;3.00;;;;;20.24;53.36;102137.03;5017664;27;45504;-79
2022/06/13 10:02:04;;;;;;;;;3.25;2.25;;;;;20.27;52.84;102131.84;5082094;27;45251;-79
2022/06/13 10:05:03;;;;;;;;;4.00;2.25;;;;;20.27;51.59;102131.84;5100386;27;46192;-79
2022/06/13 10:07:35;;;;;;;;;3.00;2.00;;;;;20.32;52.11;102130.25;5098869;27;45405;-79
2022/06/13 10:10:07;;;;;;;;;2.25;2.00;;;;;20.37;52.45;102127.72;5070626;27;45190;-79
2022/06/13 10:12:55;;;;;;;;;5.00;3.00;;;;;20.43;52.25;102122.59;5058165;28;45435;-79
2022/06/13 10:15:45;;;;;;;;;1.75;1.75;;;;;20.46;52.39;102127.94;5047963;28;46129;-78
2022/06/13 10:18:21;;;;;;;;;4.75;3.00;;;;;20.49;53.12;102122.78;5058263;28;45312;-79
2022/06/13 10:20:47;;;;;;;;;3.00;3.00;;;;;20.50;52.78;102128.91;5045295;27;45458;-80
2022/06/13 10:23:15;;;;;;;;;5.00;4.00;;;;;20.56;52.97;102131.72;5089033;27;45622;-79
2022/06/13 10:26:48;;;;;;;;;4.25;4.00;;;;;20.59;51.57;102128.25;5078986;28;45225;-80
2022/06/13 10:29:33;;;;;;;;;5.00;4.25;;;;;20.58;51.71;102116.81;4926415;28;45488;-80
2022/06/13 10:32:34;;;;;;;;;5.00;4.00;;;;;20.56;52.54;102121.19;4977520;28;45385;-80
2022/06/13 10:35:28;;;;;;;;;2.50;2.50;;;;;20.71;52.13;102120.66;5060157;28;45491;-80
2022/06/13 10:38:30;;;;;;;;;2.75;2.25;;;;;20.76;51.37;102115.53;5088355;27;45560;-78
2022/06/13 10:40:57;;;;;;;;;4.50;4.00;;;;;20.75;52.25;102117.25;5085738;27;45454;-88
2022/06/13 10:43:23;;;;;;;;;2.75;2.75;;;;;20.81;52.40;102121.78;5090366;27;45560;-80
2022/06/13 10:45:48;;;;;;;;;6.25;3.25;;;;;20.81;52.50;102119.16;5081660;27;45445;-79
2022/06/13 10:48:22;;;;;;;;;4.00;4.00;;;;;20.82;51.83;102108.69;5050983;27;47261;-82
2022/06/13 10:50:57;;;;;;;;;5.00;4.75;;;;;20.86;51.67;102110.50;5081403;27;45568;-79
2022/06/13 10:53:41;;;;;;;;;3.50;2.00;;;;;20.90;50.64;102121.13;5088482;27;45457;-78
2022/06/13 10:56:17;;;;;;;;;5.25;3.50;;;;;20.88;50.59;102121.97;5078720;28;45265;-78
2022/06/13 10:58:48;;;;;;;;;3.75;3.00;;;;;20.90;50.88;102118.47;5078558;28;45687;-80
2022/06/13 11:01:25;;;;;;;;;3.00;3.00;;;;;20.90;50.22;102110.59;5077699;28;45240;-79
2022/06/13 11:04:05;;;;;;;;;4.00;3.00;;;;;20.90;50.51;102098.28;5078419;27;45292;-79
2022/06/13 11:06:39;;;;;;;;;4.25;2.00;;;;;20.96;49.69;102103.72;5097566;27;45374;-79
2022/06/13 11:09:39;;;;;;;;;3.50;2.25;;;;;20.93;49.52;102111.53;5080347;27;48229;-79
2022/06/13 11:12:23;;;;;;;;;2.00;2.00;;;;;20.87;49.94;102107.03;5087150;27;45424;-79
2022/06/13 11:24:02;;;;;;;;;3.50;2.00;;;;;21.07;50.59;102105.69;5084098;27;45419;-77
2022/06/13 11:29:23;;;;;;;;;2.75;2.00;;;;;21.15;50.10;102091.84;5082198;27;45419;-78
2022/06/13 11:31:49;;;;;;;;;6.50;3.00;;;;;21.25;50.06;102106.09;5078781;27;45367;-78
2022/06/13 11:34:41;;;;;;;;;5.75;3.00;;;;;21.28;49.87;102098.25;5092516;27;45303;-79
2022/06/13 11:37:13;;;;;;;;;1.50;1.50;;;;;21.33;49.71;102101.88;5080042;27;45476;-78
2022/06/13 11:39:41;;;;;;;;;3.00;2.00;;;;;21.36;50.02;102101.06;5068921;27;45561;-79
2022/06/13 11:42:26;;;;;;;;;3.00;2.75;;;;;21.45;48.82;102101.25;5065203;28;46952;-81
2022/06/13 11:45:06;;;;;;;;;5.25;2.00;;;;;21.50;47.80;102093.44;5079029;27;45686;-78
2022/06/13 11:47:41;;;;;;;;;3.75;3.75;;;;;21.47;47.21;102085.47;5078325;27;45464;-79
2022/06/13 11:50:18;;;;;;;;;3.00;2.50;;;;;21.52;47.08;102099.63;5081645;27;45443;-82
2022/06/13 11:55:31;;;;;;;;;2.50;2.50;;;;;21.69;47.85;102093.81;5079923;27;46420;-77
2022/06/13 11:58:12;;;;;;;;;4.00;3.50;;;;;21.82;47.82;102087.94;5082403;27;45407;-79
2022/06/13 12:00:49;;;;;;;;;3.00;3.00;;;;;21.85;46.34;102080.09;5075467;27;45621;-79
2022/06/13 12:03:21;;;;;;;;;3.00;3.00;;;;;21.95;46.35;102078.47;5098320;27;46188;-79
2022/06/13 12:06:18;;;;;;;;;2.00;2.00;;;;;22.01;45.41;102081.25;5073192;28;45541;-79
2022/06/13 12:08:50;;;;;;;;;2.75;2.75;;;;;22.08;46.25;102088.41;5067365;27;45424;-79
2022/06/13 12:11:16;;;;;;;;;5.25;2.75;;;;;22.17;45.64;102078.84;5082209;27;45335;-79
2022/06/13 12:13:46;;;;;;;;;4.00;4.00;;;;;22.21;45.51;102073.66;5074116;27;45758;-79
2022/06/13 12:16:36;;;;;;;;;3.50;2.75;;;;;22.26;45.94;102076.38;5069021;27;45834;-79
2022/06/13 12:19:32;;;;;;;;;3.75;3.00;;;;;22.34;45.31;102072.13;5059680;27;45323;-77
2022/06/13 12:22:24;;;;;;;;;2.75;2.00;;;;;22.37;44.64;102071.28;5079972;27;45315;-79
2022/06/13 12:25:03;;;;;;;;;4.25;2.25;;;;;22.42;44.83;102072.25;5088644;27;45421;-79
2022/06/13 12:27:38;;;;;;;;;2.00;2.00;;;;;22.48;45.51;102076.75;5057969;28;45387;-80